Terminal Aerodrome Forecast
Issued by NWS

Home | Current Version | Previous Version | Text Only | Print | Product List | Glossary On
Versions: 1 2 3 4 5 6 7 8 9 10 11 12 13 14 15 16 17 18 19 20 21 22 23 24 25 26 27 28 29 30 31 32 33
000
FTUS41 KBOX 271126
TAFBAF
TAF
KBAF 271126Z 2712/2812 18004KT P6SM BKN150
     FM271500 18007KT P6SM BKN070
     FM272100 22010G17KT P6SM BKN070
     FM272300 19009KT P6SM BKN150
     FM280300 20005KT P6SM BKN060
     FM280400 20004KT P6SM SCT060
     FM280900 00000KT 4SM BR SCT045=

USA.gov is the U.S. government's official web portal to all federal, state and local government web resources and services.